Bessemer, AL (35023)

3:32 PM CST on February 08, 2016 (GMT -0600)
Autumn Brook Lane | | Change Station
CLOSE
Current Station
Personal Weather Station
Location: Hueytown, AL
Elevation: 600 ft
Nearby Weather Stations

Elev 600 ft 33.46 °N, 86.99 °W | Updated 4 seconds ago

Overcast
Overcast
48.7 °F
Feels Like 43 °F
N
13.8
Wind Variable Wind from NW
Gusts 13.8 mph

Today
High -- | Low -- °F
--% Chance of Precip.
Yesterday
High -- | Low -- °F
Precip. -- in
Pressure 29.85 in
Visibility 10.0 miles
Clouds Mostly Cloudy 7000 ft
Overcast 8500 ft
Windchill 43 °F
Dew Point 24 °F
Humidity 37%
Rainfall in
Snow Depth Not available.
6:39 AM 5:26 PM
New Moon, 0% visible
METAR KBHM 082053Z 28011G18KT 10SM BKN070 OVC085 09/M06 A2985 RMK AO2 SLP108 T00891061 55008
Pressure 29.85 in
Visibility 10.0 miles
Clouds Mostly Cloudy 7000 ft
Overcast 8500 ft
Windchill 43 °F
Dew Point 24 °F
Humidity 37%
Rainfall in
Snow Depth Not available.
6:39 AM 5:26 PM
New Moon, 0% visible
METAR KBHM 082053Z 28011G18KT 10SM BKN070 OVC085 09/M06 A2985 RMK AO2 SLP108 T00891061 55008

10-Day Weather Forecast

Almanac

Astronomy

Feb. 08, 2016 Rise Set
Actual Time
Civil Twilight
Nautical Twilight
Astronomical Twilight
Moon
Length of Visible Light
Length of Day
Tomorrow will be .
, % of the Moon is Illuminated

Today's Extremes

State Highs State Lows

Community

WunderPhotos

Upload Photos

1,891,517 photos uploaded!

WunderBlog® & News

Nearby

Air Quality

  Air Quality AQ Index Pollutant
Not available.

Snow Depth

Station Depth Elevation

Earthquake Activity

City Distance Mag. Time & Date
Minimum magnitude displayed is 2.5.

Coastal Water Temperatures

Place Temperature

Stations

Nearby Weather Stations

Station Location Temp. Windchill Dew Point Humidity Wind Precip. Elev Updated Type
                   

Watches & Warnings

There are currently no watches in effect.